createdAt,value
2018-12-29T00:00:57.626Z,80.80
2018-12-29T00:03:30.933Z,80.80
2018-12-29T00:06:04.052Z,80.40
2018-12-29T00:08:36.595Z,80.50
2018-12-29T00:11:09.355Z,80.40
2018-12-29T00:13:42.016Z,80.60
2018-12-29T00:16:15.875Z,80.40
2018-12-29T00:18:48.195Z,80.50
2018-12-29T00:21:20.013Z,80.40
2018-12-29T00:23:53.075Z,80.20
2018-12-29T00:26:25.154Z,80.10
2018-12-29T00:28:57.974Z,80.20
2018-12-29T00:31:31.193Z,80.40
2018-12-29T00:34:04.434Z,80.40
2018-12-29T00:36:37.774Z,80.50
2018-12-29T00:39:10.557Z,80.50
2018-12-29T00:41:43.655Z,80.50
2018-12-29T00:44:16.694Z,80.70
2018-12-29T00:46:50.553Z,80.50
2018-12-29T00:49:22.975Z,80.50
2018-12-29T00:51:56.133Z,81.00
2018-12-29T00:54:28.655Z,80.50
2018-12-29T00:57:01.195Z,80.60
2018-12-29T00:59:34.074Z,80.80
2018-12-29T01:02:08.414Z,80.70
2018-12-29T01:04:41.474Z,81.50
2018-12-29T01:07:14.553Z,80.70
2018-12-29T01:09:47.074Z,80.80
2018-12-29T01:12:20.674Z,80.80
2018-12-29T01:14:53.735Z,80.90
2018-12-29T01:17:25.762Z,80.90
2018-12-29T01:19:57.714Z,80.90
2018-12-29T01:22:30.053Z,81.00
2018-12-29T01:25:02.893Z,80.90
2018-12-29T01:27:35.094Z,80.70
2018-12-29T01:30:08.294Z,80.40
2018-12-29T01:32:41.554Z,80.50
2018-12-29T01:35:13.734Z,80.30
2018-12-29T01:37:47.075Z,80.20
2018-12-29T01:40:19.175Z,80.30
2018-12-29T01:42:52.134Z,80.20
2018-12-29T01:45:24.814Z,80.30
2018-12-29T01:47:57.354Z,80.50
2018-12-29T01:50:29.334Z,80.50
2018-12-29T01:53:01.255Z,80.20
2018-12-29T01:55:33.614Z,80.40
2018-12-29T01:58:06.694Z,80.60
2018-12-29T02:00:39.915Z,80.40
2018-12-29T02:03:13.094Z,80.70
2018-12-29T02:05:46.219Z,80.70
2018-12-29T02:08:19.114Z,80.80
2018-12-29T02:10:51.395Z,81.00
2018-12-29T02:13:24.635Z,81.10
2018-12-29T02:15:58.276Z,81.10
2018-12-29T02:18:31.355Z,80.90
2018-12-29T02:21:03.976Z,81.00
2018-12-29T02:23:36.676Z,81.20
2018-12-29T02:26:08.937Z,80.90
2018-12-29T02:28:41.955Z,81.10
2018-12-29T02:31:14.235Z,81.20
2018-12-29T02:33:47.514Z,81.20
2018-12-29T02:36:20.796Z,81.10
2018-12-29T02:38:53.796Z,81.00
2018-12-29T02:41:26.595Z,81.00
2018-12-29T02:43:59.035Z,81.10
2018-12-29T02:46:30.074Z,80.90
2018-12-29T02:49:02.818Z,81.10
2018-12-29T02:51:35.273Z,80.90
2018-12-29T02:54:08.235Z,80.80
2018-12-29T02:56:40.775Z,81.00
2018-12-29T02:59:13.534Z,81.00
2018-12-29T03:01:46.535Z,80.80
2018-12-29T03:04:20.215Z,80.70
2018-12-29T03:06:53.155Z,80.60
2018-12-29T03:09:25.893Z,80.60
2018-12-29T03:11:57.913Z,80.30
2018-12-29T03:14:31.375Z,79.90
2018-12-29T03:17:03.976Z,79.80
2018-12-29T03:19:35.774Z,79.80
2018-12-29T03:22:08.414Z,79.70
2018-12-29T03:24:41.474Z,79.30
2018-12-29T03:27:13.776Z,79.50
2018-12-29T03:29:46.555Z,79.60
2018-12-29T03:32:19.815Z,79.50
2018-12-29T03:34:53.096Z,79.60
2018-12-29T03:37:26.114Z,79.50
2018-12-29T03:39:58.375Z,79.50
2018-12-29T03:42:31.357Z,79.60
2018-12-29T03:45:05.214Z,79.70
2018-12-29T03:47:38.255Z,79.90
2018-12-29T03:50:11.312Z,80.20
2018-12-29T03:52:42.974Z,80.20
2018-12-29T03:55:15.877Z,80.50
2018-12-29T03:57:48.817Z,80.70
2018-12-29T04:00:21.616Z,80.90
2018-12-29T04:02:54.099Z,81.10
2018-12-29T04:05:27.456Z,80.70
2018-12-29T04:08:00.175Z,81.00
2018-12-29T04:10:33.755Z,81.30
2018-12-29T04:13:07.075Z,81.20
2018-12-29T04:15:39.236Z,81.20
2018-12-29T04:18:11.574Z,80.90
2018-12-29T04:20:44.857Z,81.10
2018-12-29T04:23:17.636Z,81.10
2018-12-29T04:25:50.438Z,81.20
2018-12-29T04:28:23.378Z,81.10
2018-12-29T04:30:57.055Z,81.40
2018-12-29T04:33:30.077Z,81.00
2018-12-29T04:36:02.817Z,81.10
2018-12-29T04:38:35.115Z,81.20
2018-12-29T04:41:07.237Z,81.40
2018-12-29T04:43:39.797Z,81.70
2018-12-29T04:46:12.516Z,81.60
2018-12-29T04:48:45.476Z,81.70
2018-12-29T04:51:18.376Z,81.90
2018-12-29T04:53:50.917Z,82.10
2018-12-29T04:56:24.314Z,82.30
2018-12-29T04:58:57.396Z,82.40
2018-12-29T05:01:30.454Z,82.30
2018-12-29T05:04:02.714Z,82.40
2018-12-29T05:06:35.076Z,82.50
2018-12-29T05:09:09.095Z,82.50
2018-12-29T05:11:42.656Z,82.20
2018-12-29T05:14:15.098Z,82.10
2018-12-29T05:16:48.156Z,82.00
2018-12-29T05:19:20.297Z,82.20
2018-12-29T05:21:53.255Z,82.30
2018-12-29T05:24:26.697Z,82.70
2018-12-29T05:26:59.755Z,82.80
2018-12-29T05:29:32.395Z,82.90
2018-12-29T05:32:05.094Z,82.90
2018-12-29T05:34:38.376Z,83.00
2018-12-29T05:37:11.016Z,83.10
2018-12-29T05:39:43.535Z,83.10
2018-12-29T05:42:15.714Z,82.80
2018-12-29T05:44:47.795Z,82.50
2018-12-29T05:47:20.296Z,82.70
2018-12-29T05:49:53.405Z,82.50
2018-12-29T05:52:26.216Z,82.60
2018-12-29T05:54:58.856Z,82.50
2018-12-29T05:57:30.555Z,82.70
2018-12-29T06:00:03.975Z,82.60
2018-12-29T06:02:36.856Z,82.90
2018-12-29T06:05:10.196Z,83.00
2018-12-29T06:07:42.835Z,83.00
2018-12-29T06:10:15.336Z,83.00
2018-12-29T06:12:48.436Z,83.10
2018-12-29T06:15:21.537Z,83.00
2018-12-29T06:17:53.995Z,83.40
2018-12-29T06:20:26.994Z,83.30
2018-12-29T06:22:59.974Z,83.20
2018-12-29T06:25:33.938Z,83.10
2018-12-29T06:28:06.715Z,83.00
2018-12-29T06:30:39.275Z,83.00
2018-12-29T06:33:12.294Z,83.00
2018-12-29T06:35:45.576Z,83.10
2018-12-29T06:38:18.336Z,83.20
2018-12-29T06:40:50.854Z,83.00
2018-12-29T06:43:23.495Z,82.90
2018-12-29T06:45:56.555Z,82.80
2018-12-29T06:48:28.817Z,83.10
2018-12-29T06:51:01.375Z,83.00
2018-12-29T06:53:33.936Z,83.60
2018-12-29T06:56:06.615Z,82.70
2018-12-29T06:58:39.515Z,83.00
2018-12-29T07:01:12.396Z,82.90
2018-12-29T07:03:46.737Z,82.80
2018-12-29T07:06:19.558Z,82.70
2018-12-29T07:08:52.314Z,82.80
2018-12-29T07:11:25.655Z,82.40
2018-12-29T07:13:57.956Z,82.50
2018-12-29T07:16:30.719Z,83.30
2018-12-29T07:19:03.854Z,82.60
2018-12-29T07:21:36.775Z,82.60
2018-12-29T07:24:08.998Z,82.60
2018-12-29T07:26:42.215Z,82.80
2018-12-29T07:29:15.275Z,82.90
2018-12-29T07:31:48.377Z,82.80
2018-12-29T07:34:21.675Z,82.60
2018-12-29T07:36:54.757Z,82.50
2018-12-29T07:39:27.396Z,82.60
2018-12-29T07:42:00.276Z,82.50
2018-12-29T07:44:33.294Z,82.40
2018-12-29T07:47:06.375Z,81.90
2018-12-29T07:49:38.698Z,81.70
2018-12-29T07:52:12.455Z,81.10
2018-12-29T07:54:44.936Z,81.00
2018-12-29T07:57:18.235Z,80.90
2018-12-29T07:59:51.776Z,80.60
2018-12-29T08:02:24.375Z,80.60
2018-12-29T08:04:56.315Z,81.10
2018-12-29T08:07:29.734Z,80.30
2018-12-29T08:10:02.894Z,80.10
2018-12-29T08:12:35.715Z,79.90
2018-12-29T08:15:09.315Z,79.80
2018-12-29T08:17:42.654Z,79.80
2018-12-29T08:20:14.415Z,79.60
2018-12-29T08:22:47.336Z,79.70
2018-12-29T08:25:20.895Z,79.50
2018-12-29T08:27:54.758Z,79.20
2018-12-29T08:30:27.075Z,78.80
2018-12-29T08:32:59.435Z,78.50
2018-12-29T08:35:32.255Z,78.10
2018-12-29T08:38:04.795Z,78.20
2018-12-29T08:40:37.436Z,79.10
2018-12-29T08:43:10.833Z,78.40
2018-12-29T08:45:43.857Z,78.30
2018-12-29T08:48:16.934Z,78.40
2018-12-29T08:50:49.194Z,78.60
2018-12-29T08:53:21.994Z,78.50
2018-12-29T08:55:55.516Z,78.50
2018-12-29T08:58:28.994Z,78.40
2018-12-29T09:01:02.354Z,78.30
2018-12-29T09:03:34.674Z,77.90
2018-12-29T09:06:07.476Z,77.60
2018-12-29T09:08:40.115Z,77.30
2018-12-29T09:11:12.675Z,77.20
2018-12-29T09:13:44.516Z,76.80
2018-12-29T09:16:17.036Z,76.50
2018-12-29T09:18:50.222Z,76.50
2018-12-29T09:21:22.717Z,76.20
2018-12-29T09:23:55.835Z,76.20
2018-12-29T09:26:27.795Z,76.10
2018-12-29T09:29:00.495Z,76.00
2018-12-29T09:31:33.555Z,76.10
2018-12-29T09:34:07.176Z,75.60
2018-12-29T09:36:40.936Z,75.80
2018-12-29T09:39:14.815Z,75.50
2018-12-29T09:41:47.996Z,74.80
2018-12-29T09:44:20.136Z,74.60
2018-12-29T09:46:52.555Z,74.70
2018-12-29T09:49:24.876Z,75.00
2018-12-29T09:51:57.274Z,75.00
2018-12-29T09:54:30.335Z,74.90
2018-12-29T09:57:02.854Z,75.10
2018-12-29T09:59:35.655Z,74.90
2018-12-29T10:02:08.754Z,75.40
2018-12-29T10:04:41.894Z,75.10
2018-12-29T10:07:14.793Z,75.20
2018-12-29T10:09:47.115Z,74.70
2018-12-29T10:12:19.934Z,74.50
2018-12-29T10:14:53.235Z,74.50
2018-12-29T10:17:26.961Z,74.90
2018-12-29T10:20:00.355Z,74.80
2018-12-29T10:22:32.514Z,74.50
2018-12-29T10:25:04.814Z,74.40
2018-12-29T10:27:37.795Z,74.50
2018-12-29T10:30:10.275Z,74.70
2018-12-29T10:32:42.275Z,74.60
2018-12-29T10:35:14.894Z,74.70
2018-12-29T10:37:48.195Z,74.70
2018-12-29T10:40:20.355Z,74.60
2018-12-29T10:42:53.196Z,74.10
2018-12-29T10:45:26.515Z,73.30
2018-12-29T10:47:59.817Z,74.00
2018-12-29T10:50:32.394Z,73.80
2018-12-29T10:53:05.355Z,73.80
2018-12-29T10:55:38.634Z,73.70
2018-12-29T10:58:11.675Z,73.50
2018-12-29T11:00:44.098Z,73.60
2018-12-29T11:03:16.914Z,73.10
2018-12-29T11:05:50.935Z,73.30
2018-12-29T11:08:23.797Z,73.20
2018-12-29T11:10:57.155Z,73.00
2018-12-29T11:13:30.955Z,73.10
2018-12-29T11:16:02.914Z,72.80
2018-12-29T11:18:35.174Z,72.90
2018-12-29T11:21:08.994Z,72.20
2018-12-29T11:23:41.234Z,71.90
2018-12-29T11:26:14.194Z,72.30
2018-12-29T11:28:47.996Z,71.40
2018-12-29T11:31:20.534Z,72.30
2018-12-29T11:33:52.615Z,72.40
2018-12-29T11:36:25.894Z,71.80
2018-12-29T11:38:59.314Z,71.50
2018-12-29T11:41:32.137Z,71.50
2018-12-29T11:44:04.717Z,71.70
2018-12-29T11:46:38.075Z,71.50
2018-12-29T11:49:17.826Z,72.00
2018-12-29T11:51:44.274Z,71.50
2018-12-29T11:54:16.794Z,71.40
2018-12-29T11:56:49.875Z,71.00
2018-12-29T11:59:22.574Z,71.40
2018-12-29T12:01:55.814Z,72.00
2018-12-29T12:04:28.174Z,71.70
2018-12-29T12:07:01.097Z,72.00
2018-12-29T12:09:34.134Z,71.20
2018-12-29T12:12:06.834Z,71.30
2018-12-29T12:14:40.816Z,70.70
2018-12-29T12:17:14.135Z,70.80
2018-12-29T12:19:47.454Z,70.90
2018-12-29T12:22:19.916Z,70.80
2018-12-29T12:24:52.460Z,70.50
2018-12-29T12:27:24.955Z,70.10
2018-12-29T12:29:58.535Z,70.30
2018-12-29T12:32:31.195Z,70.10
2018-12-29T12:35:04.014Z,70.00
2018-12-29T12:37:36.977Z,69.90
2018-12-29T12:40:09.914Z,70.40
2018-12-29T12:42:43.454Z,69.80
2018-12-29T12:45:15.854Z,69.90
2018-12-29T12:47:48.775Z,69.80
2018-12-29T12:50:21.834Z,69.70
2018-12-29T12:52:54.975Z,70.00
2018-12-29T12:55:27.874Z,69.90
2018-12-29T12:58:00.574Z,70.00
2018-12-29T13:00:33.374Z,70.40
2018-12-29T13:03:06.416Z,70.30
2018-12-29T13:05:39.477Z,70.20
2018-12-29T13:08:12.154Z,70.20
2018-12-29T13:10:44.674Z,69.10
2018-12-29T13:13:17.736Z,69.50
2018-12-29T13:15:51.075Z,69.90
2018-12-29T13:18:24.433Z,69.90
2018-12-29T13:20:57.258Z,70.10
2018-12-29T13:23:29.495Z,70.20
2018-12-29T13:26:02.655Z,70.30
2018-12-29T13:28:35.814Z,70.20
2018-12-29T13:31:08.135Z,70.50
2018-12-29T13:33:41.315Z,70.70
2018-12-29T13:36:14.380Z,70.90
2018-12-29T13:38:47.639Z,71.00
2018-12-29T13:41:20.679Z,70.40
2018-12-29T13:43:53.116Z,70.60
2018-12-29T13:46:25.978Z,70.50
2018-12-29T13:48:59.137Z,70.60
2018-12-29T13:51:31.757Z,70.30
2018-12-29T13:54:04.197Z,69.70
2018-12-29T13:56:36.777Z,69.90
2018-12-29T13:59:10.056Z,70.20
2018-12-29T14:01:43.895Z,70.00
2018-12-29T14:04:17.718Z,70.00
2018-12-29T14:06:50.556Z,69.80
2018-12-29T14:09:22.856Z,70.00
2018-12-29T14:11:56.056Z,70.70
2018-12-29T14:14:29.444Z,70.40
2018-12-29T14:17:03.196Z,70.20
2018-12-29T14:19:36.257Z,71.30
2018-12-29T14:22:08.616Z,70.60
2018-12-29T14:24:41.056Z,70.70
2018-12-29T14:27:14.355Z,70.50
2018-12-29T14:29:47.396Z,70.50
2018-12-29T14:32:20.678Z,70.20
2018-12-29T14:34:53.117Z,70.30
2018-12-29T14:37:25.416Z,69.90
2018-12-29T14:39:59.016Z,70.10
2018-12-29T14:42:32.496Z,70.20
2018-12-29T14:45:06.117Z,70.20
2018-12-29T14:47:38.957Z,70.50
2018-12-29T14:50:12.158Z,70.60
2018-12-29T14:52:45.258Z,70.30
2018-12-29T14:55:17.736Z,70.30
2018-12-29T14:57:50.736Z,70.80
2018-12-29T15:00:23.917Z,70.60
2018-12-29T15:02:56.199Z,70.20
2018-12-29T15:05:28.619Z,70.40
2018-12-29T15:08:01.256Z,70.50
2018-12-29T15:10:34.217Z,70.60
2018-12-29T15:13:07.558Z,70.00
2018-12-29T15:15:39.716Z,70.40
2018-12-29T15:18:13.177Z,70.40
2018-12-29T15:20:46.198Z,70.70
2018-12-29T15:23:19.823Z,71.00
2018-12-29T15:25:52.736Z,71.00
2018-12-29T15:28:26.098Z,70.60
2018-12-29T15:30:58.779Z,70.90
2018-12-29T15:33:31.497Z,71.10
2018-12-29T15:36:04.597Z,71.30
2018-12-29T15:38:38.238Z,71.20
2018-12-29T15:41:11.524Z,71.30
2018-12-29T15:43:43.725Z,71.20
2018-12-29T15:46:16.524Z,71.50
2018-12-29T15:48:51.131Z,71.60
2018-12-29T15:51:24.808Z,71.70
2018-12-29T15:53:58.384Z,71.70
2018-12-29T15:56:32.627Z,72.00
2018-12-29T15:59:05.764Z,72.20
2018-12-29T16:01:39.838Z,72.30
2018-12-29T16:04:12.783Z,72.30
2018-12-29T16:06:45.944Z,72.70
2018-12-29T16:09:19.324Z,72.70
2018-12-29T16:11:53.264Z,73.00
2018-12-29T16:14:25.929Z,73.00
2018-12-29T16:16:59.326Z,72.80
2018-12-29T16:19:32.019Z,72.90
2018-12-29T16:22:05.434Z,72.90
2018-12-29T16:24:39.212Z,72.80
2018-12-29T16:27:12.532Z,72.60
2018-12-29T16:29:45.024Z,72.60
2018-12-29T16:32:17.503Z,72.70
2018-12-29T16:34:50.284Z,72.80
2018-12-29T16:37:22.584Z,73.00
2018-12-29T16:39:55.215Z,73.30
2018-12-29T16:42:28.805Z,72.80
2018-12-29T16:45:02.385Z,72.60
2018-12-29T16:47:35.663Z,72.70
2018-12-29T16:50:08.065Z,72.70
2018-12-29T16:52:40.424Z,72.90
2018-12-29T16:55:12.905Z,72.80
2018-12-29T16:57:44.627Z,72.80
2018-12-29T17:00:18.743Z,73.10
2018-12-29T17:02:51.165Z,73.20
2018-12-29T17:05:25.045Z,72.80
2018-12-29T17:07:59.195Z,72.50
2018-12-29T17:10:31.806Z,72.30
2018-12-29T17:13:03.988Z,71.90
2018-12-29T17:15:37.345Z,72.00
2018-12-29T17:18:11.484Z,72.00
2018-12-29T17:20:44.066Z,71.80
2018-12-29T17:23:16.145Z,72.10
2018-12-29T17:25:50.025Z,71.80
2018-12-29T17:28:23.647Z,71.90
2018-12-29T17:30:56.965Z,72.20
2018-12-29T17:33:28.865Z,72.10
2018-12-29T17:36:01.705Z,72.10
2018-12-29T17:38:34.406Z,72.00
2018-12-29T17:41:07.743Z,72.40
2018-12-29T17:43:40.824Z,72.60
2018-12-29T17:46:13.684Z,72.80
2018-12-29T17:48:46.306Z,73.20
2018-12-29T17:51:18.845Z,73.20
2018-12-29T17:53:51.025Z,73.20
2018-12-29T17:56:24.265Z,73.60
2018-12-29T17:58:57.985Z,72.70
2018-12-29T18:01:31.764Z,72.90
2018-12-29T18:04:05.105Z,72.90
2018-12-29T18:06:38.065Z,73.00
2018-12-29T18:09:10.725Z,72.90
2018-12-29T18:11:44.245Z,72.80
2018-12-29T18:14:17.125Z,72.80
2018-12-29T18:16:49.906Z,72.80
2018-12-29T18:19:30.751Z,73.00
2018-12-29T18:21:57.785Z,72.90
2018-12-29T18:24:30.526Z,72.90
2018-12-29T18:27:03.669Z,72.80
2018-12-29T18:29:36.765Z,73.10
2018-12-29T18:32:09.565Z,73.00
2018-12-29T18:34:42.625Z,73.30
2018-12-29T18:37:15.045Z,73.30
2018-12-29T18:39:47.944Z,73.00
2018-12-29T18:42:20.784Z,72.80
2018-12-29T18:44:54.086Z,72.70
2018-12-29T18:47:26.764Z,72.60
2018-12-29T18:49:59.104Z,72.50
2018-12-29T18:52:32.845Z,72.00
2018-12-29T18:55:05.307Z,72.50
2018-12-29T18:57:38.124Z,72.40
2018-12-29T19:00:10.583Z,72.10
2018-12-29T19:02:43.302Z,72.50
2018-12-29T19:05:16.624Z,72.40
2018-12-29T19:07:48.303Z,72.30
2018-12-29T19:10:21.084Z,72.40
2018-12-29T19:12:54.933Z,72.60
2018-12-29T19:15:28.603Z,72.80
2018-12-29T19:18:01.023Z,72.70
2018-12-29T19:20:33.624Z,72.50
2018-12-29T19:23:06.564Z,72.10
2018-12-29T19:25:39.303Z,72.00
2018-12-29T19:28:13.784Z,72.10
2018-12-29T19:30:46.923Z,72.10
2018-12-29T19:33:20.327Z,71.90
2018-12-29T19:35:53.728Z,72.00
2018-12-29T19:38:27.624Z,72.00
2018-12-29T19:41:00.646Z,72.00
2018-12-29T19:43:33.344Z,72.20
2018-12-29T19:46:06.863Z,72.10
2018-12-29T19:48:39.244Z,72.20
2018-12-29T19:51:12.627Z,72.20
2018-12-29T19:53:45.883Z,72.00
2018-12-29T19:56:19.163Z,72.00
2018-12-29T19:58:51.430Z,71.90
2018-12-29T20:01:24.862Z,72.10
2018-12-29T20:03:58.707Z,72.20
2018-12-29T20:06:31.348Z,71.80
2018-12-29T20:09:05.189Z,71.70
2018-12-29T20:11:37.749Z,71.70
2018-12-29T20:14:10.389Z,71.70
2018-12-29T20:16:42.907Z,72.00
2018-12-29T20:19:16.126Z,71.90
2018-12-29T20:21:47.227Z,71.80
2018-12-29T20:24:19.527Z,72.00
2018-12-29T20:26:52.888Z,72.20
2018-12-29T20:29:25.309Z,72.20
2018-12-29T20:31:57.647Z,71.90
2018-12-29T20:34:30.689Z,72.00
2018-12-29T20:37:04.751Z,72.20
2018-12-29T20:39:37.829Z,72.40
2018-12-29T20:42:10.447Z,72.40
2018-12-29T20:44:43.188Z,72.20
2018-12-29T20:47:16.408Z,72.30
2018-12-29T20:49:49.688Z,72.40
2018-12-29T20:52:23.528Z,72.50
2018-12-29T20:54:55.849Z,72.40
2018-12-29T20:57:28.787Z,72.20
2018-12-29T21:00:02.069Z,72.50
2018-12-29T21:02:35.187Z,72.20
2018-12-29T21:05:09.250Z,72.30
2018-12-29T21:07:42.567Z,72.60
2018-12-29T21:10:15.008Z,72.40
2018-12-29T21:12:47.967Z,72.20
2018-12-29T21:15:20.750Z,72.30
2018-12-29T21:17:54.335Z,72.30
2018-12-29T21:20:28.366Z,72.20
2018-12-29T21:23:01.347Z,72.40
2018-12-29T21:25:33.868Z,72.40
2018-12-29T21:28:06.528Z,72.30
2018-12-29T21:30:39.988Z,72.10
2018-12-29T21:33:13.286Z,72.40
2018-12-29T21:35:46.108Z,72.80
2018-12-29T21:38:19.908Z,72.70
2018-12-29T21:40:53.067Z,72.60
2018-12-29T21:43:24.928Z,72.30
2018-12-29T21:45:58.227Z,72.30
2018-12-29T21:48:31.807Z,72.40
2018-12-29T21:51:04.608Z,72.50
2018-12-29T21:53:37.189Z,72.30
2018-12-29T21:56:09.907Z,72.80
2018-12-29T21:58:43.808Z,72.40
2018-12-29T22:01:16.887Z,72.30
2018-12-29T22:03:50.147Z,72.10
2018-12-29T22:06:23.169Z,72.40
2018-12-29T22:08:56.828Z,72.30
2018-12-29T22:11:29.640Z,72.30
2018-12-29T22:14:02.290Z,72.70
2018-12-29T22:16:35.132Z,73.10
2018-12-29T22:19:08.468Z,73.30
2018-12-29T22:21:42.129Z,73.40
2018-12-29T22:24:16.051Z,73.10
2018-12-29T22:26:49.128Z,73.00
2018-12-29T22:29:23.318Z,73.10
2018-12-29T22:31:55.828Z,73.10
2018-12-29T22:34:28.329Z,73.00
2018-12-29T22:37:01.348Z,72.90
2018-12-29T22:39:34.969Z,72.90
2018-12-29T22:42:07.973Z,73.30
2018-12-29T22:44:41.569Z,73.40
2018-12-29T22:47:13.869Z,73.30
2018-12-29T22:49:46.850Z,73.20
2018-12-29T22:52:19.188Z,72.90
2018-12-29T22:54:52.388Z,73.20
2018-12-29T22:57:25.690Z,73.00
2018-12-29T22:59:59.077Z,73.20
2018-12-29T23:02:33.248Z,73.00
2018-12-29T23:05:06.489Z,72.90
2018-12-29T23:07:39.148Z,73.20
2018-12-29T23:10:11.988Z,73.10
2018-12-29T23:12:44.788Z,73.20
2018-12-29T23:15:17.836Z,74.40
2018-12-29T23:17:50.370Z,73.80
2018-12-29T23:20:22.789Z,73.90
2018-12-29T23:22:55.848Z,73.80
2018-12-29T23:25:29.148Z,73.50
2018-12-29T23:28:01.569Z,73.90
2018-12-29T23:30:34.188Z,74.30
2018-12-29T23:33:07.168Z,75.10
2018-12-29T23:35:39.488Z,75.10
2018-12-29T23:38:12.768Z,74.90
2018-12-29T23:40:45.228Z,75.20
2018-12-29T23:43:17.969Z,76.00
2018-12-29T23:45:50.349Z,76.40
2018-12-29T23:48:23.508Z,76.80
2018-12-29T23:51:05.131Z,77.10
2018-12-29T23:53:31.572Z,77.30
2018-12-29T23:56:04.448Z,77.60
2018-12-29T23:58:37.489Z,78.00
